Time;durP1;ratioP1;P1;durP2;ratioP2;P2;SDS_P1;SDS_P2;PMS_P1;PMS_P2;Temp;Humidity;BMP_temperature;BMP_pressure;BME280_temperature;BME280_humidity;BME280_pressure;Samples;Min_cycle;Max_cycle;Signal;HPM_P1;HPM_P2
2023/06/30 00:00:26;;;;;;;8.10;2.38;;;19.80;67.70;;;;;;5057082;28;20026;-63
2023/06/30 00:02:51;;;;;;;8.30;2.40;;;19.70;67.50;;;;;;5073958;28;20025;-63
2023/06/30 00:05:18;;;;;;;8.70;2.22;;;19.80;67.50;;;;;;5072481;28;20047;-63
2023/06/30 00:07:44;;;;;;;8.55;2.13;;;19.70;67.40;;;;;;5074649;28;20071;-63
2023/06/30 00:10:10;;;;;;;6.93;2.35;;;19.70;67.40;;;;;;5072988;28;20387;-63
2023/06/30 00:12:36;;;;;;;5.88;2.22;;;19.70;67.30;;;;;;5069662;28;20115;-63
2023/06/30 00:15:02;;;;;;;6.78;2.22;;;19.70;67.10;;;;;;5072320;28;20429;-63
2023/06/30 00:17:28;;;;;;;7.18;2.13;;;19.70;66.90;;;;;;5072869;28;20322;-63
2023/06/30 00:19:58;;;;;;;6.30;1.90;;;19.60;66.70;;;;;;5073761;28;20400;-63
2023/06/30 00:22:25;;;;;;;6.55;2.05;;;19.60;66.70;;;;;;5056725;28;20103;-63
2023/06/30 00:24:54;;;;;;;5.38;2.10;;;19.60;66.70;;;;;;5072930;28;20025;-63
2023/06/30 00:27:22;;;;;;;7.13;2.13;;;19.50;66.50;;;;;;5073863;28;20120;-63
2023/06/30 00:29:47;;;;;;;8.68;2.70;;;19.50;66.50;;;;;;5055004;28;20027;-63
2023/06/30 00:32:13;;;;;;;7.50;2.47;;;19.60;66.40;;;;;;5055021;28;20349;-63
2023/06/30 00:34:40;;;;;;;7.50;2.33;;;19.50;66.40;;;;;;5071147;28;21472;-63
2023/06/30 00:37:06;;;;;;;6.70;2.17;;;19.50;66.30;;;;;;5073419;28;20032;-63
2023/06/30 00:39:32;;;;;;;8.02;2.45;;;19.50;66.40;;;;;;5054244;28;20154;-63
2023/06/30 00:42:00;;;;;;;8.43;2.20;;;19.50;66.30;;;;;;5056700;28;20024;-63
2023/06/30 00:44:26;;;;;;;11.57;2.72;;;19.50;66.30;;;;;;5054749;28;20024;-63
2023/06/30 00:46:52;;;;;;;7.22;1.95;;;19.50;66.20;;;;;;5074189;28;20020;-63
2023/06/30 00:49:18;;;;;;;7.57;2.65;;;19.40;66.20;;;;;;5054595;28;20024;-63
2023/06/30 00:51:44;;;;;;;8.13;2.15;;;19.40;66.20;;;;;;5038273;28;20036;-63
2023/06/30 00:54:12;;;;;;;5.97;2.05;;;19.40;66.20;;;;;;5055228;28;20425;-64
2023/06/30 00:56:37;;;;;;;7.47;2.63;;;19.30;66.20;;;;;;5055465;28;20124;-63
2023/06/30 00:59:03;;;;;;;7.22;2.67;;;19.30;66.20;;;;;;5054118;28;20094;-63
2023/06/30 01:01:40;;;;;;;8.75;3.25;;;19.30;66.20;;;;;;5073391;28;20036;-63
2023/06/30 01:04:31;;;;;;;8.52;2.60;;;19.30;66.20;;;;;;5072951;28;20032;-63
2023/06/30 01:07:17;;;;;;;6.90;2.63;;;19.20;66.10;;;;;;5069529;28;20021;-63
2023/06/30 01:10:07;;;;;;;8.27;2.53;;;19.20;66.20;;;;;;5039220;28;20024;-63
2023/06/30 01:12:34;;;;;;;7.13;2.40;;;19.20;66.30;;;;;;5060422;28;20025;-63
2023/06/30 01:15:01;;;;;;;7.05;2.50;;;19.10;66.30;;;;;;5055528;28;20293;-63
2023/06/30 01:17:28;;;;;;;8.20;2.70;;;19.10;66.30;;;;;;5073072;28;20050;-63
2023/06/30 01:20:22;;;;;;;7.78;2.67;;;19.10;66.30;;;;;;5037766;28;20024;-63
2023/06/30 01:23:02;;;;;;;7.05;2.50;;;19.10;66.30;;;;;;5054104;28;20081;-65
2023/06/30 01:25:29;;;;;;;6.63;2.47;;;19.00;66.50;;;;;;5054743;28;20043;-63
2023/06/30 01:27:59;;;;;;;5.55;2.25;;;19.00;66.50;;;;;;5055416;28;20477;-63
2023/06/30 01:30:29;;;;;;;8.07;2.85;;;19.00;66.60;;;;;;5072456;28;20062;-63
2023/06/30 01:32:56;;;;;;;7.30;2.50;;;18.90;66.60;;;;;;5069562;28;20035;-63
2023/06/30 01:35:26;;;;;;;7.32;2.42;;;18.90;66.60;;;;;;5038901;28;20339;-63
2023/06/30 01:37:53;;;;;;;10.38;3.05;;;18.90;66.60;;;;;;5037452;28;20056;-63
2023/06/30 01:40:20;;;;;;;9.45;2.88;;;18.90;66.60;;;;;;5052350;28;20029;-63
2023/06/30 01:42:53;;;;;;;6.57;2.53;;;18.90;66.60;;;;;;5055622;28;20476;-63
2023/06/30 01:45:21;;;;;;;7.35;2.75;;;18.90;66.60;;;;;;5071884;28;20035;-63
2023/06/30 01:47:48;;;;;;;6.57;2.72;;;18.80;66.60;;;;;;5072566;28;20123;-63
2023/06/30 01:50:14;;;;;;;8.90;3.15;;;18.80;66.60;;;;;;5054058;28;20032;-63
2023/06/30 01:52:40;;;;;;;7.82;2.80;;;18.80;66.60;;;;;;5073355;28;20020;-64
2023/06/30 01:55:06;;;;;;;7.68;2.75;;;18.80;66.60;;;;;;5072723;28;20046;-63
2023/06/30 01:57:32;;;;;;;7.55;2.60;;;18.70;66.50;;;;;;5071279;28;20024;-63
2023/06/30 01:59:58;;;;;;;8.68;2.70;;;18.70;66.50;;;;;;5054595;28;20094;-63
2023/06/30 02:02:24;;;;;;;7.13;2.78;;;18.70;66.50;;;;;;5055373;28;20021;-63
2023/06/30 02:04:49;;;;;;;9.13;3.00;;;18.70;66.50;;;;;;5036693;28;20035;-63
2023/06/30 02:07:15;;;;;;;7.88;2.90;;;18.60;66.40;;;;;;5071540;28;20028;-63
2023/06/30 02:09:41;;;;;;;7.68;2.85;;;18.60;66.40;;;;;;5072514;28;20085;-63
2023/06/30 02:12:07;;;;;;;6.63;2.58;;;18.70;66.40;;;;;;5055077;28;20129;-63
2023/06/30 02:14:32;;;;;;;8.07;2.92;;;18.70;66.40;;;;;;5073164;28;20033;-63
2023/06/30 02:16:58;;;;;;;6.15;2.78;;;18.60;66.40;;;;;;5037862;28;20028;-63
2023/06/30 02:19:24;;;;;;;8.23;3.00;;;18.60;66.50;;;;;;5052741;28;20031;-63
2023/06/30 02:21:52;;;;;;;7.90;3.15;;;18.60;66.50;;;;;;5054331;28;20029;-63
2023/06/30 02:24:18;;;;;;;6.75;2.67;;;18.50;66.40;;;;;;5072282;28;20183;-63
2023/06/30 02:26:47;;;;;;;8.13;2.90;;;18.50;66.40;;;;;;5053923;28;20074;-63
2023/06/30 02:29:13;;;;;;;10.25;2.83;;;18.50;66.40;;;;;;5053363;28;20016;-63
2023/06/30 02:31:39;;;;;;;10.07;3.22;;;18.50;66.50;;;;;;5056549;28;20350;-63
2023/06/30 02:34:04;;;;;;;9.55;2.85;;;18.50;66.50;;;;;;5076155;28;20021;-63
2023/06/30 02:36:31;;;;;;;9.60;2.65;;;18.50;66.50;;;;;;5057287;28;20031;-63
2023/06/30 02:38:57;;;;;;;7.20;2.60;;;18.40;66.50;;;;;;5074054;28;20356;-63
2023/06/30 02:41:23;;;;;;;6.93;2.30;;;18.40;66.50;;;;;;5055021;28;20035;-63
2023/06/30 02:43:49;;;;;;;6.05;2.38;;;18.40;66.30;;;;;;5076337;28;20024;-63
2023/06/30 02:46:15;;;;;;;8.40;2.60;;;18.40;66.40;;;;;;5058041;28;20033;-63
2023/06/30 02:48:41;;;;;;;7.10;2.22;;;18.30;66.30;;;;;;5040716;28;20024;-64
2023/06/30 02:51:07;;;;;;;8.00;2.65;;;18.30;66.20;;;;;;5056968;28;20468;-63
2023/06/30 02:53:33;;;;;;;7.35;2.33;;;18.30;66.30;;;;;;5076168;28;20072;-63
2023/06/30 02:55:59;;;;;;;8.23;2.85;;;18.30;66.30;;;;;;5075186;28;20094;-63
2023/06/30 02:58:24;;;;;;;10.00;3.20;;;18.30;66.30;;;;;;5057851;28;20024;-63
2023/06/30 03:00:51;;;;;;;7.85;2.55;;;18.20;66.20;;;;;;5055991;28;20048;-63
2023/06/30 03:03:17;;;;;;;7.50;2.78;;;18.20;66.20;;;;;;5057901;28;20021;-63
2023/06/30 03:05:43;;;;;;;8.52;2.58;;;18.20;66.20;;;;;;5057566;28;20025;-63
2023/06/30 03:08:10;;;;;;;6.75;2.33;;;18.20;66.20;;;;;;5057332;28;20169;-63
2023/06/30 03:10:36;;;;;;;8.32;2.47;;;18.20;66.20;;;;;;5056847;28;20025;-63
2023/06/30 03:13:03;;;;;;;8.02;2.47;;;18.20;66.20;;;;;;5056865;28;20047;-63
2023/06/30 03:15:28;;;;;;;8.82;2.40;;;18.10;66.20;;;;;;5075762;28;20036;-63
2023/06/30 03:17:55;;;;;;;9.40;2.60;;;18.10;66.20;;;;;;5057195;28;20419;-63
2023/06/30 03:20:23;;;;;;;8.38;2.67;;;18.10;66.20;;;;;;5055940;28;20017;-63
2023/06/30 03:22:48;;;;;;;9.70;2.40;;;18.10;66.20;;;;;;5056934;28;20024;-63
2023/06/30 03:25:14;;;;;;;7.85;2.67;;;18.10;66.20;;;;;;5037856;28;20035;-63
2023/06/30 03:27:41;;;;;;;7.10;2.30;;;18.10;66.20;;;;;;5050841;28;20090;-63
2023/06/30 03:30:08;;;;;;;8.60;2.85;;;18.00;66.20;;;;;;5073937;28;20032;-63
2023/06/30 03:32:38;;;;;;;6.97;2.43;;;18.00;66.30;;;;;;5040409;28;20025;-63
2023/06/30 03:35:04;;;;;;;6.63;2.20;;;18.00;66.30;;;;;;5057370;28;20476;-63
2023/06/30 03:37:31;;;;;;;8.38;2.70;;;18.00;66.40;;;;;;5056196;28;20460;-63
2023/06/30 03:40:00;;;;;;;7.75;2.70;;;17.90;66.40;;;;;;5039403;28;20078;-63
2023/06/30 03:42:26;;;;;;;6.60;2.53;;;17.90;66.40;;;;;;5051920;28;20457;-63
2023/06/30 03:44:52;;;;;;;6.43;2.40;;;17.90;66.40;;;;;;5073905;28;20020;-63
2023/06/30 03:47:18;;;;;;;7.55;2.90;;;17.90;66.40;;;;;;5052193;28;20378;-63
2023/06/30 03:49:44;;;;;;;6.47;2.30;;;17.90;66.40;;;;;;5050977;28;20035;-63
2023/06/30 03:52:10;;;;;;;8.50;2.60;;;17.90;66.40;;;;;;5054268;28;20021;-63
2023/06/30 03:54:35;;;;;;;10.65;2.38;;;17.90;66.40;;;;;;5038927;28;20044;-63
2023/06/30 03:57:03;;;;;;;8.38;2.85;;;17.90;66.50;;;;;;5059255;28;20041;-63
2023/06/30 03:59:28;;;;;;;7.05;2.65;;;17.90;66.60;;;;;;5024084;28;20029;-63
2023/06/30 04:01:55;;;;;;;5.30;2.55;;;17.80;66.60;;;;;;5021786;28;20087;-63
2023/06/30 04:04:21;;;;;;;9.07;2.72;;;17.80;66.70;;;;;;5063313;28;20020;-63
2023/06/30 04:06:47;;;;;;;6.38;2.50;;;17.80;66.80;;;;;;5062382;28;20045;-63
2023/06/30 04:09:13;;;;;;;5.80;2.45;;;17.80;66.90;;;;;;5054847;28;20045;-63
2023/06/30 04:11:39;;;;;;;9.63;3.42;;;17.80;67.10;;;;;;5058514;28;20028;-63
2023/06/30 04:14:05;;;;;;;8.68;2.70;;;17.80;67.20;;;;;;5056586;28;20120;-63
2023/06/30 04:16:31;;;;;;;9.15;2.78;;;17.80;67.30;;;;;;5042048;28;20080;-63
2023/06/30 04:18:56;;;;;;;8.60;2.95;;;17.80;67.50;;;;;;5065673;28;20107;-63
2023/06/30 04:21:22;;;;;;;6.82;2.95;;;17.80;67.50;;;;;;5073724;28;20037;-63
2023/06/30 04:23:48;;;;;;;7.57;2.83;;;17.70;67.60;;;;;;5074668;28;20047;-63
2023/06/30 04:26:17;;;;;;;6.03;2.40;;;17.80;67.70;;;;;;5070880;28;20024;-62
2023/06/30 04:28:43;;;;;;;7.18;2.72;;;17.70;67.70;;;;;;5055986;28;20082;-61
2023/06/30 04:31:09;;;;;;;6.68;2.40;;;17.80;67.80;;;;;;5072894;28;20036;-62
2023/06/30 04:33:36;;;;;;;8.43;2.63;;;17.80;67.80;;;;;;5073859;28;20036;-63
2023/06/30 04:36:01;;;;;;;9.52;2.65;;;17.80;67.80;;;;;;5052646;28;20067;-62
2023/06/30 04:38:27;;;;;;;8.90;3.15;;;17.80;67.80;;;;;;5074409;28;20052;-62
2023/06/30 04:40:54;;;;;;;8.27;2.40;;;17.80;67.80;;;;;;5045493;28;20087;-62
2023/06/30 04:43:20;;;;;;;7.68;2.50;;;17.80;67.80;;;;;;5071685;28;20031;-62
2023/06/30 04:45:45;;;;;;;5.05;2.10;;;17.80;67.80;;;;;;5070376;28;20457;-62
2023/06/30 04:48:11;;;;;;;8.10;2.78;;;17.90;67.90;;;;;;5068871;28;20101;-62
2023/06/30 04:50:37;;;;;;;8.85;2.63;;;17.80;67.80;;;;;;5072101;28;20020;-61
2023/06/30 04:53:03;;;;;;;9.15;2.35;;;17.80;67.80;;;;;;5070294;28;20124;-62
2023/06/30 04:55:28;;;;;;;5.68;2.40;;;17.80;67.90;;;;;;5069422;28;20035;-63
2023/06/30 04:57:55;;;;;;;8.32;2.40;;;17.90;68.00;;;;;;5035857;28;20054;-63
2023/06/30 05:00:25;;;;;;;7.68;2.40;;;17.90;67.90;;;;;;5073933;28;20028;-63
2023/06/30 05:02:50;;;;;;;7.15;2.55;;;17.90;67.90;;;;;;5073522;28;20028;-63
2023/06/30 05:05:16;;;;;;;7.03;2.03;;;18.00;67.80;;;;;;5072952;28;20088;-63
2023/06/30 05:07:42;;;;;;;6.85;2.47;;;18.00;67.70;;;;;;5073854;28;20468;-64
2023/06/30 05:10:09;;;;;;;7.57;2.70;;;18.00;67.50;;;;;;5073834;28;20020;-63
2023/06/30 05:12:36;;;;;;;5.30;1.98;;;18.10;67.40;;;;;;5072851;28;20077;-63
2023/06/30 05:15:02;;;;;;;6.68;2.08;;;18.10;67.20;;;;;;5071219;28;20091;-63
2023/06/30 05:17:27;;;;;;;6.13;1.95;;;18.20;67.00;;;;;;5073325;28;20020;-63
2023/06/30 05:19:53;;;;;;;4.43;1.75;;;18.30;66.50;;;;;;5072515;28;20028;-63
2023/06/30 05:22:19;;;;;;;7.70;1.88;;;18.30;66.20;;;;;;5070040;28;20131;-63
2023/06/30 05:24:44;;;;;;;6.53;1.90;;;18.40;65.90;;;;;;5032564;28;20494;-63
2023/06/30 05:27:10;;;;;;;5.47;1.80;;;18.50;65.70;;;;;;5072804;28;20035;-64
2023/06/30 05:29:37;;;;;;;4.50;2.10;;;18.60;65.40;;;;;;5071908;28;20464;-63
2023/06/30 05:32:04;;;;;;;6.25;1.98;;;18.70;65.00;;;;;;5050463;28;20127;-63
2023/06/30 05:34:29;;;;;;;6.13;1.52;;;18.80;64.90;;;;;;5070892;28;20434;-63
2023/06/30 05:36:55;;;;;;;6.00;2.17;;;18.90;64.70;;;;;;5072556;28;20036;-63
2023/06/30 05:39:22;;;;;;;5.00;2.00;;;18.90;64.50;;;;;;5038903;28;20061;-63
2023/06/30 05:41:48;;;;;;;7.03;1.88;;;19.00;64.40;;;;;;5073891;28;20021;-63
2023/06/30 05:44:14;;;;;;;5.38;1.90;;;19.20;64.10;;;;;;5067413;28;20116;-62
2023/06/30 05:46:39;;;;;;;7.80;2.17;;;19.20;63.80;;;;;;5053872;28;20026;-62
2023/06/30 05:49:06;;;;;;;6.82;1.70;;;19.40;63.70;;;;;;5072408;28;20114;-63
2023/06/30 05:51:36;;;;;;;4.32;1.67;;;19.50;63.60;;;;;;5072161;28;20017;-63
2023/06/30 05:54:02;;;;;;;6.63;1.70;;;19.60;63.30;;;;;;5070543;28;20041;-63
2023/06/30 05:56:29;;;;;;;6.20;1.75;;;19.60;63.20;;;;;;5053779;28;20032;-62
2023/06/30 05:58:55;;;;;;;6.95;1.80;;;19.70;63.00;;;;;;5052614;28;20021;-62
2023/06/30 06:01:21;;;;;;;6.38;2.35;;;19.70;62.90;;;;;;5054531;28;20060;-63
2023/06/30 06:03:47;;;;;;;6.10;2.03;;;19.80;62.70;;;;;;5053903;28;20485;-63
2023/06/30 06:06:13;;;;;;;4.63;1.55;;;19.80;62.50;;;;;;5073677;28;20131;-62
2023/06/30 06:08:40;;;;;;;6.22;2.03;;;19.80;62.40;;;;;;5076120;28;20210;-62
2023/06/30 06:11:06;;;;;;;8.25;2.22;;;19.90;62.40;;;;;;5058369;28;20033;-62
2023/06/30 06:13:38;;;;;;;5.18;1.98;;;20.00;62.20;;;;;;5075080;28;20087;-62
2023/06/30 06:16:06;;;;;;;5.13;1.70;;;20.00;62.10;;;;;;5072913;28;20123;-62
2023/06/30 06:18:32;;;;;;;5.65;1.65;;;20.10;62.00;;;;;;5073537;28;20044;-63
2023/06/30 06:20:59;;;;;;;7.63;2.05;;;20.20;61.90;;;;;;5076150;28;20029;-62
2023/06/30 06:23:25;;;;;;;5.35;1.90;;;20.20;61.60;;;;;;5076745;28;20054;-63
2023/06/30 06:25:51;;;;;;;6.70;2.10;;;20.30;61.50;;;;;;5056723;28;20108;-63
2023/06/30 06:28:17;;;;;;;9.18;1.95;;;20.30;61.20;;;;;;5077098;28;20330;-63
2023/06/30 06:30:45;;;;;;;4.03;1.60;;;20.40;61.00;;;;;;5075521;28;20115;-62
2023/06/30 06:33:10;;;;;;;8.43;2.15;;;20.50;60.90;;;;;;5077411;28;20438;-62
2023/06/30 06:35:36;;;;;;;4.88;1.58;;;20.60;60.60;;;;;;5075038;28;20032;-62
2023/06/30 06:38:02;;;;;;;6.05;1.90;;;20.60;60.30;;;;;;5058593;28;20035;-63
2023/06/30 06:40:29;;;;;;;5.97;1.85;;;20.70;60.20;;;;;;5077018;28;20024;-62
2023/06/30 06:42:55;;;;;;;4.25;1.63;;;20.80;60.00;;;;;;5076035;28;20033;-63
2023/06/30 06:45:26;;;;;;;;;;;20.90;59.80;;;;;;5058131;28;20047;-63
2023/06/30 06:48:18;;;;;;;4.88;1.75;;;20.90;59.70;;;;;;5075162;28;19999;-64
2023/06/30 06:50:45;;;;;;;6.88;1.80;;;21.10;59.50;;;;;;5041915;28;20032;-63
2023/06/30 06:53:16;;;;;;;5.65;1.80;;;21.20;59.30;;;;;;5058575;28;20105;-63
2023/06/30 06:55:42;;;;;;;4.13;1.80;;;21.30;58.80;;;;;;5075766;28;20079;-63
2023/06/30 06:58:07;;;;;;;7.50;1.90;;;21.50;58.50;;;;;;5075605;28;20053;-63
2023/06/30 07:00:33;;;;;;;6.35;2.05;;;21.60;58.00;;;;;;5076583;28;20068;-63
2023/06/30 07:02:59;;;;;;;6.32;1.75;;;21.70;57.70;;;;;;5041987;28;20028;-63
2023/06/30 07:05:25;;;;;;;4.50;1.75;;;21.80;57.50;;;;;;5058348;28;20476;-63
2023/06/30 07:07:52;;;;;;;6.22;1.80;;;21.90;57.10;;;;;;5056343;28;20037;-63
2023/06/30 07:10:18;;;;;;;6.65;2.05;;;22.00;56.70;;;;;;5076038;28;20345;-63
2023/06/30 07:12:43;;;;;;;2.80;1.35;;;22.10;56.60;;;;;;5058596;28;20044;-63
2023/06/30 07:15:10;;;;;;;6.70;1.80;;;22.20;56.20;;;;;;5075970;28;20035;-64
2023/06/30 07:17:35;;;;;;;5.90;1.65;;;22.30;56.00;;;;;;5039211;28;20032;-63
2023/06/30 07:20:01;;;;;;;5.47;2.00;;;22.50;55.90;;;;;;5056999;28;20024;-63
2023/06/30 07:22:27;;;;;;;7.80;2.15;;;22.70;55.60;;;;;;5076456;28;20028;-63
2023/06/30 07:24:53;;;;;;;4.40;1.60;;;22.80;55.10;;;;;;5058135;28;20071;-62
2023/06/30 07:27:18;;;;;;;6.00;1.63;;;23.00;54.70;;;;;;5074809;28;20041;-63
2023/06/30 07:29:49;;;;;;;6.78;2.05;;;23.10;54.10;;;;;;5076097;28;20028;-63
2023/06/30 07:32:15;;;;;;;4.80;1.60;;;23.20;53.70;;;;;;5074853;28;20093;-63
2023/06/30 07:34:40;;;;;;;7.20;1.75;;;23.30;53.50;;;;;;5073021;28;20046;-63
2023/06/30 07:37:07;;;;;;;3.50;1.13;;;23.40;52.90;;;;;;5073662;28;20107;-63
2023/06/30 07:39:34;;;;;;;5.55;1.73;;;23.50;52.30;;;;;;5040263;28;20021;-63
2023/06/30 07:42:00;;;;;;;3.83;1.40;;;23.60;51.90;;;;;;5058174;28;20075;-64
2023/06/30 07:44:25;;;;;;;2.85;1.17;;;23.60;51.70;;;;;;5057785;28;20465;-63
2023/06/30 07:46:51;;;;;;;4.18;1.40;;;23.70;51.60;;;;;;5075857;28;20028;-63
2023/06/30 07:49:17;;;;;;;5.53;1.88;;;23.80;51.10;;;;;;5057065;28;20056;-64
2023/06/30 07:51:45;;;;;;;7.07;1.48;;;24.00;50.60;;;;;;5057918;28;20341;-63
2023/06/30 07:54:11;;;;;;;3.85;1.08;;;24.00;50.30;;;;;;5054012;28;20068;-63
2023/06/30 07:56:38;;;;;;;4.38;1.70;;;24.20;50.00;;;;;;5038337;28;20079;-63
2023/06/30 07:59:04;;;;;;;3.53;1.35;;;24.30;49.80;;;;;;5053412;28;20118;-64
2023/06/30 08:01:30;;;;;;;4.93;1.15;;;24.30;49.30;;;;;;5053035;28;20021;-63
2023/06/30 08:03:57;;;;;;;3.72;1.30;;;24.40;49.00;;;;;;5037292;28;20060;-64
2023/06/30 08:06:23;;;;;;;3.60;1.35;;;24.50;48.80;;;;;;5055324;28;20044;-63
2023/06/30 08:08:49;;;;;;;3.00;1.33;;;24.50;48.50;;;;;;5053162;28;20037;-64
2023/06/30 08:11:14;;;;;;;6.03;1.70;;;24.70;48.30;;;;;;5054622;28;20021;-63
2023/06/30 08:13:40;;;;;;;3.38;1.30;;;24.70;47.80;;;;;;5054718;28;20331;-63
2023/06/30 08:16:06;;;;;;;5.78;1.60;;;24.80;47.60;;;;;;5054054;28;20442;-63
2023/06/30 08:18:32;;;;;;;3.78;1.30;;;24.90;47.40;;;;;;5037147;28;20449;-63
2023/06/30 08:20:58;;;;;;;5.55;1.55;;;25.00;46.90;;;;;;5053372;28;20028;-64
2023/06/30 08:23:25;;;;;;;3.70;1.25;;;25.10;46.70;;;;;;5053794;28;20052;-64
2023/06/30 08:25:54;;;;;;;3.38;1.10;;;25.20;46.30;;;;;;5055390;28;20430;-64
2023/06/30 08:28:20;;;;;;;5.45;1.25;;;25.30;46.20;;;;;;5037603;28;20412;-64
2023/06/30 08:30:46;;;;;;;3.42;1.23;;;25.30;46.10;;;;;;5053684;28;20039;-64
2023/06/30 08:33:12;;;;;;;3.85;1.17;;;25.40;45.80;;;;;;5054464;28;20104;-64
2023/06/30 08:35:38;;;;;;;3.83;1.38;;;25.50;45.50;;;;;;5054737;28;20113;-64
2023/06/30 08:38:05;;;;;;;4.68;1.50;;;25.50;45.40;;;;;;5054483;28;20102;-65
2023/06/30 08:40:31;;;;;;;3.33;1.48;;;25.40;45.30;;;;;;5052923;28;20027;-63
2023/06/30 08:43:13;;;;;;;4.88;1.52;;;25.40;45.40;;;;;;5053929;28;20021;-64
2023/06/30 08:45:42;;;;;;;4.47;1.63;;;25.30;45.30;;;;;;5053950;28;20052;-64
2023/06/30 08:48:09;;;;;;;5.13;1.40;;;25.30;45.60;;;;;;5048600;28;20112;-63
2023/06/30 08:50:36;;;;;;;6.68;1.63;;;25.20;45.40;;;;;;5051357;28;20028;-64
2023/06/30 08:53:04;;;;;;;3.03;1.10;;;25.20;45.10;;;;;;5057175;28;20052;-63
2023/06/30 08:55:30;;;;;;;4.35;1.13;;;25.30;45.00;;;;;;5056586;28;20109;-63
2023/06/30 08:57:56;;;;;;;2.13;1.08;;;25.50;44.30;;;;;;5074429;28;20024;-63
2023/06/30 09:00:23;;;;;;;3.05;1.38;;;25.40;44.70;;;;;;5074144;28;20042;-64
2023/06/30 09:02:50;;;;;;;3.15;1.17;;;25.50;44.10;;;;;;5072526;28;20032;-64
2023/06/30 09:05:16;;;;;;;3.55;1.20;;;25.60;43.80;;;;;;5073925;28;20028;-64
2023/06/30 09:07:50;;;;;;;3.65;1.27;;;25.70;43.60;;;;;;5056487;28;20101;-64
2023/06/30 09:10:17;;;;;;;3.10;1.02;;;25.80;43.40;;;;;;5074440;28;20063;-64
2023/06/30 09:12:46;;;;;;;2.65;1.23;;;25.90;43.30;;;;;;5039071;28;20033;-64
2023/06/30 09:15:16;;;;;;;3.58;1.27;;;26.00;43.30;;;;;;5056165;28;20028;-64
2023/06/30 09:17:43;;;;;;;5.05;1.42;;;26.20;42.80;;;;;;5074506;28;20029;-64
2023/06/30 09:20:11;;;;;;;3.42;1.35;;;26.20;42.70;;;;;;5056435;28;20029;-64
2023/06/30 09:22:43;;;;;;;3.15;1.02;;;26.10;42.50;;;;;;5072877;28;20028;-64
2023/06/30 09:25:27;;;;;;;5.00;1.40;;;26.10;42.40;;;;;;5055504;28;20040;-64
2023/06/30 09:27:55;;;;;;;3.08;1.33;;;26.00;42.50;;;;;;5071386;28;20472;-64
2023/06/30 09:30:39;;;;;;;2.90;1.13;;;25.70;42.50;;;;;;5073861;28;20177;-64
2023/06/30 09:33:07;;;;;;;4.25;1.60;;;25.60;42.70;;;;;;5038421;28;20391;-64
2023/06/30 09:35:42;;;;;;;4.22;1.52;;;25.50;43.00;;;;;;5073698;28;20074;-64
2023/06/30 09:38:12;;;;;;;5.20;1.60;;;25.60;43.10;;;;;;5055832;28;20053;-63
2023/06/30 09:40:42;;;;;;;3.50;1.20;;;25.80;43.10;;;;;;5074520;28;20039;-62
2023/06/30 09:43:08;;;;;;;2.42;1.20;;;26.10;43.00;;;;;;5077118;28;20016;-63
2023/06/30 09:45:34;;;;;;;2.92;1.23;;;26.30;42.30;;;;;;5060657;28;20321;-63
2023/06/30 09:48:00;;;;;;;3.13;1.40;;;26.30;42.40;;;;;;5050519;28;20457;-63
2023/06/30 09:50:32;;;;;;;4.38;1.35;;;26.40;42.50;;;;;;5077408;28;20027;-62
2023/06/30 09:52:58;;;;;;;2.92;1.10;;;26.30;42.40;;;;;;5059274;28;20369;-62
2023/06/30 09:55:24;;;;;;;3.35;1.33;;;26.10;42.60;;;;;;5077464;28;20352;-63
2023/06/30 09:57:53;;;;;;;2.95;1.30;;;26.00;42.60;;;;;;5077549;28;20100;-63
2023/06/30 10:00:19;;;;;;;2.75;1.15;;;26.00;42.70;;;;;;5059951;28;20033;-62
2023/06/30 10:02:45;;;;;;;6.22;1.67;;;26.10;42.70;;;;;;5060536;28;20483;-62
2023/06/30 10:05:11;;;;;;;5.10;1.92;;;26.00;42.60;;;;;;5075048;28;20037;-63
2023/06/30 10:07:40;;;;;;;3.75;1.30;;;25.90;42.90;;;;;;5059649;28;20413;-62
2023/06/30 10:10:12;;;;;;;5.90;1.80;;;25.60;43.20;;;;;;5059373;28;20030;-65
2023/06/30 10:12:42;;;;;;;4.70;1.67;;;25.30;43.50;;;;;;5077300;28;20032;-63
2023/06/30 10:15:10;;;;;;;3.80;1.40;;;25.10;43.80;;;;;;5076290;28;20059;-63
2023/06/30 10:17:38;;;;;;;3.83;1.63;;;24.90;44.00;;;;;;5059821;28;20191;-64
2023/06/30 10:20:06;;;;;;;3.80;1.38;;;24.90;44.20;;;;;;5076942;28;20016;-63
2023/06/30 10:22:32;;;;;;;4.38;1.40;;;24.80;44.40;;;;;;5077245;28;20039;-63
2023/06/30 10:24:59;;;;;;;4.43;1.33;;;24.70;44.70;;;;;;5056307;28;20056;-62
2023/06/30 10:27:25;;;;;;;4.18;1.50;;;24.60;45.10;;;;;;5059361;28;20029;-62
2023/06/30 10:29:52;;;;;;;3.55;1.30;;;24.50;45.30;;;;;;5059657;28;20040;-63
2023/06/30 10:32:20;;;;;;;3.60;1.50;;;24.40;45.30;;;;;;5059245;28;20028;-63
2023/06/30 10:34:47;;;;;;;4.60;1.50;;;24.50;45.30;;;;;;5075991;28;20036;-63
2023/06/30 10:37:14;;;;;;;4.57;1.45;;;24.70;45.10;;;;;;5076642;28;20016;-63
2023/06/30 10:39:41;;;;;;;6.45;1.42;;;25.00;44.80;;;;;;5077004;28;20024;-62
2023/06/30 10:42:10;;;;;;;4.93;1.67;;;25.20;44.60;;;;;;5059254;28;20020;-62
2023/06/30 10:44:40;;;;;;;5.32;1.75;;;25.30;44.50;;;;;;5075749;28;20433;-63
2023/06/30 10:47:06;;;;;;;4.38;1.55;;;25.20;44.50;;;;;;5075041;28;20028;-63
2023/06/30 10:49:32;;;;;;;4.25;1.75;;;25.00;44.70;;;;;;5042177;28;20024;-63
2023/06/30 10:52:00;;;;;;;4.30;1.70;;;24.90;45.00;;;;;;5076685;28;20029;-63
2023/06/30 10:54:31;;;;;;;4.63;1.70;;;24.80;45.20;;;;;;5058766;28;20094;-64
2023/06/30 10:57:10;;;;;;;;;;;24.60;45.50;;;;;;5057621;28;20032;-63
2023/06/30 10:59:38;;;;;;;3.47;1.50;;;24.60;45.80;;;;;;5062867;28;20245;-64
2023/06/30 11:02:19;;;;;;;4.95;1.73;;;24.60;45.80;;;;;;5042168;28;20033;-64
2023/06/30 11:04:46;;;;;;;4.28;1.75;;;24.80;45.20;;;;;;5058561;28;20097;-64
2023/06/30 11:07:32;;;;;;;6.45;1.90;;;25.10;45.10;;;;;;5075360;28;20111;-64
2023/06/30 11:09:59;;;;;;;3.70;1.30;;;25.50;44.70;;;;;;5076059;28;20106;-63
2023/06/30 11:12:27;;;;;;;3.28;1.38;;;25.70;44.60;;;;;;5076105;28;20124;-64
2023/06/30 11:15:00;;;;;;;2.30;1.23;;;25.70;44.40;;;;;;5076193;28;20040;-63
2023/06/30 11:17:52;;;;;;;3.40;1.42;;;25.90;44.00;;;;;;5075176;28;20032;-63
2023/06/30 11:20:18;;;;;;;5.28;1.52;;;26.00;43.70;;;;;;5055768;28;20029;-64
2023/06/30 11:23:02;;;;;;;5.30;1.80;;;25.90;43.80;;;;;;5075932;28;20381;-63
2023/06/30 11:25:29;;;;;;;7.38;1.52;;;25.90;43.80;;;;;;5075795;28;20474;-64
2023/06/30 11:27:57;;;;;;;4.22;1.65;;;26.00;43.80;;;;;;5074270;28;20049;-63
2023/06/30 11:30:23;;;;;;;4.00;1.83;;;26.00;43.60;;;;;;5076230;28;20429;-64
2023/06/30 11:32:56;;;;;;;4.53;1.63;;;25.90;43.60;;;;;;5058198;28;20024;-63
2023/06/30 11:35:22;;;;;;;4.55;1.85;;;25.80;43.70;;;;;;5058364;28;20024;-64
2023/06/30 11:37:49;;;;;;;5.38;1.52;;;25.70;43.90;;;;;;5055224;28;20017;-63
2023/06/30 11:40:15;;;;;;;4.20;1.73;;;25.60;44.30;;;;;;5074236;28;20020;-63
2023/06/30 11:42:42;;;;;;;4.68;1.50;;;25.50;44.40;;;;;;5075364;28;20022;-63
2023/06/30 11:45:08;;;;;;;5.90;1.88;;;25.40;44.60;;;;;;5057874;28;20024;-63
2023/06/30 11:47:35;;;;;;;8.80;2.00;;;25.20;44.40;;;;;;5074771;28;20073;-63
2023/06/30 11:50:07;;;;;;;5.05;1.98;;;25.10;44.60;;;;;;5058095;28;20105;-63
2023/06/30 11:52:34;;;;;;;3.78;1.60;;;25.20;44.40;;;;;;5075366;28;20033;-63
2023/06/30 11:55:04;;;;;;;4.65;1.60;;;25.40;44.40;;;;;;5072226;28;20128;-63
2023/06/30 11:57:40;;;;;;;5.63;1.65;;;25.60;43.90;;;;;;5056561;28;20131;-64
2023/06/30 12:00:08;;;;;;;4.55;1.95;;;25.80;43.70;;;;;;5065557;28;20361;-63
2023/06/30 12:02:55;;;;;;;4.68;1.63;;;26.00;43.70;;;;;;5060490;28;20111;-64
2023/06/30 12:05:25;;;;;;;4.82;1.90;;;26.20;43.70;;;;;;5074679;28;20111;-64
2023/06/30 12:07:55;;;;;;;4.78;2.10;;;26.30;43.10;;;;;;5056277;28;20040;-64
2023/06/30 12:10:22;;;;;;;6.72;1.92;;;26.30;42.90;;;;;;5039817;28;20134;-63
2023/06/30 12:12:57;;;;;;;5.18;2.10;;;26.20;42.90;;;;;;5031431;28;20047;-64
2023/06/30 12:15:24;;;;;;;5.97;1.88;;;26.30;43.10;;;;;;5069533;28;20035;-64
2023/06/30 12:17:54;;;;;;;6.55;2.05;;;26.30;43.50;;;;;;5068509;28;20040;-63
2023/06/30 12:20:33;;;;;;;4.20;1.75;;;26.30;43.60;;;;;;5056127;28;20032;-63
2023/06/30 12:22:59;;;;;;;4.15;1.73;;;26.20;43.20;;;;;;5041024;28;20046;-64
2023/06/30 12:25:26;;;;;;;6.80;1.75;;;26.20;43.40;;;;;;5075192;28;20452;-63
2023/06/30 12:27:55;;;;;;;4.65;1.70;;;26.00;43.50;;;;;;5056942;28;20115;-64
2023/06/30 12:30:24;;;;;;;4.38;1.85;;;25.80;43.30;;;;;;5054068;28;20425;-64
2023/06/30 12:33:00;;;;;;;5.05;1.70;;;25.80;43.50;;;;;;5064079;28;20053;-65
2023/06/30 12:35:37;;;;;;;4.55;2.00;;;25.80;43.60;;;;;;5072210;28;20028;-64
2023/06/30 12:38:04;;;;;;;5.53;2.00;;;25.80;43.60;;;;;;5075263;28;20032;-64
2023/06/30 12:40:30;;;;;;;6.47;1.90;;;25.80;43.40;;;;;;5073533;28;20025;-63
2023/06/30 12:43:00;;;;;;;4.72;1.70;;;25.70;43.40;;;;;;5074365;28;20460;-64
2023/06/30 12:45:26;;;;;;;5.78;1.67;;;25.70;43.60;;;;;;5056668;28;20058;-63
2023/06/30 12:47:52;;;;;;;6.43;2.22;;;25.70;43.70;;;;;;5057304;28;20025;-63
2023/06/30 12:50:19;;;;;;;3.28;1.70;;;25.70;43.60;;;;;;5055025;28;20032;-63